Strona główna
METAR-TAF:

METAR-TAF

Lotnisko :

Port lotniczy Pontianak-Supadio

Pontianak, Indonezja

Szerokość geograficzna: 00-09S, Długość geograficzna: 109-24E, wysokość: 3 m

Aktualna obserwacja pogody

Raport powstał 47 minut temu, godzina 22:30 UTC
Wiatr 3 kt od wschód
Temperatura 24°C
Wilgotność 100%
Ciśnienie 1010 hPa
Widzialność: 6000 m
Mało chmury na wysokości 1100 ft, Cumulonimbus.
Rozproszone chmury na wysokości 1200 ft
burza

METAR: WIOO 102230Z 08003KT 6000 TS FEW011CB SCT012 24/24 Q1010 TEMPO FM2330 2000 RA

czas: 06:17 (23:17 UTC)


TAF: brakujący

Obserwacja i prognoza pogody dla ponad 4000 lotnisk (raport METAR i TAF).

Dostępne stacje oznaczono żółtymi i czerwonymi punktami na mapie.

Najedź kursorem aby zobaczyć nazwę stacji.

Kliknij aby zobaczyć obserwacje i prognozy pogody.

Aby zmienić mapę: kliknij na zielony przycisk z czarnym krzyżykiem, aby powiększyć; na zielony przycisk z myślnikiem, aby pomniejszyć; na zielone strzałki, aby przejść do map sąsiednich.


METAR-TAF: